x

Buzzards Bay, Ma (buzm3) Weather Station

3:00 - Thu 29th Sep 2016 All times are EDT. -4 hours from GMT.

  • Wind
    34mph, 39mph gusts
  • Luft Temp 59°f
  • Sea Pressure 1025.2mb
  • Buzzards Bay, Ma
  • Buzzards Bay, Ma

More Historic Weather Station data

Upgrade to MSW Pro to gain access to the past 30 days of data for over 8000 Wavebouys and Weather Stations around the globe.

Join Pro

Comparision Forecast

View Surf forecast
   
Do 09/29 3:00 34 39 mph 1025.2mb 59f
2:00 31 34 mph 1024.9mb 60f
1:00 29 31 mph 1025.1mb 60f
12:00 32 36 mph 1024.8mb 62f
Mi 09/28 11:00 32 34 mph 1024.9mb 61f
10:00 30 33 mph 1024.2mb 61f
9:00 31 33 mph 1023.9mb 61f
8:00 28 31 mph 1023.3mb 60f
7:00 29 31 mph 1022.5mb 59f
6:00 31 36 mph 1022.2mb 58f
5:00 32 37 mph 1021.9mb 59f
4:00 32 37 mph 1021.4mb 59f
3:00 32 37 mph 1021.3mb 60f
2:00 32 34 mph 1020.9mb 61f
1:00 32 33 mph 1020.9mb 61f
12:00 30 32 mph 1020.9mb 61f
11:00 29 32 mph 1021mb 62f
10:00 28 30 mph 1020.9mb 61f
9:00 29 31 mph 1020.5mb 61f
8:00 25 29 mph 1019.6mb 62f
7:00 20 22 mph 1019.4mb 63f
6:00 24 26 mph 1018.5mb 63f
5:00 21 22 mph 1017.7mb 64f
4:00 18 20 mph 1017.5mb 65f
3:00 14 15 mph 1017.1mb 65f
2:00 10 11 mph 1017mb 65f
1:00 9 10 mph 1016.6mb 65f
12:00 9
mph
1016.1mb 65f
Di 09/27 11:00 7
mph
1015.9mb 66f
10:00 5 6 mph 1015.4mb 66f
9:00 8 9 mph 1014.7mb 65f
8:00 6
mph
1014.6mb 65f
7:00 5 6 mph 1013.8mb 65f
6:00 6
mph
1013.3mb 66f
5:00 8 9 mph 1013.4mb 65f
4:00 3 5 mph 1012.8mb 66f
3:00 7 8 mph 1013.1mb 66f
2:00 8
mph
1012.7mb 66f
1:00 10 11 mph 1013.2mb 66f
12:00 8
mph
1013.1mb 66f
11:00 11 14 mph 1013.1mb 65f
10:00 16 17 mph 1013.3mb 66f
9:00 21 23 mph 1012.9mb 66f
8:00 25 26 mph 1012.7mb 65f
7:00 26 29 mph 1013.2mb 65f
6:00 21 22 mph 1013.2mb 67f
5:00 20 21 mph 1013.7mb 67f
4:00 22 24 mph 1014.4mb 67f
3:00 22 24 mph 1015.3mb 66f
2:00 23 25 mph 1015.8mb 66f
1:00 20 22 mph 1016.7mb 66f
12:00 21 23 mph 1017.7mb 65f
Mo 09/26 11:00 24 26 mph 1018.6mb 65f
10:00 24 26 mph 1019.1mb 65f
9:00 22 23 mph 1019.2mb 64f
8:00 17 18 mph 1019.4mb 63f
7:00 14 15 mph 1020mb 62f
6:00 16 17 mph 1020.4mb 61f
5:00 15 17 mph 1020.6mb 61f
4:00 14 16 mph 1021.2mb 60f
3:00 10 11 mph 1021.7mb 60f
2:00 9 10 mph 1022mb 59f
1:00 5 7 mph 1022.5mb 58f
12:00  -  1 mph 1023mb 60f
11:00 1 2 mph 1023.7mb 59f
10:00 3 5 mph 1023.9mb 57f
9:00 9 10 mph 1023.8mb 56f
8:00 10 11 mph 1023.6mb 56f
7:00 11 14 mph 1023.3mb 56f
6:00 14 15 mph 1022.6mb 55f
5:00 14 16 mph 1022.2mb 55f
4:00 16 17 mph 1022.2mb 55f
3:00 18
mph
1022.4mb 56f
2:00 16 18 mph 1022.6mb 57f
1:00 15 17 mph 1022.6mb 58f
12:00 16 18 mph 1022.3mb 59f
So 09/25 11:00 16 18 mph 1022.2mb 60f
10:00 18 20 mph 1021.8mb 62f
9:00 16 18 mph 1021.4mb 62f
8:00 16 17 mph 1020.9mb 63f
7:00 15 17 mph 1019.8mb 64f
6:00 11 13 mph 1019.1mb 64f
5:00 11 13 mph 1018.7mb 64f
4:00 18 21 mph 1018.6mb 63f
3:00 16 18 mph 1019.2mb 62f
2:00 13 14 mph 1019.5mb 60f
1:00 15 16 mph 1020.1mb 59f
12:00 16 18 mph 1020.5mb 57f
11:00 21 23 mph 1020.8mb 56f
10:00 18 22 mph 1021mb 55f
9:00 17 20 mph 1021.1mb 54f